sensor_id;sensor_type;location;lat;lon;timestamp;P1;durP1;ratioP1;P2;durP2;ratioP2
53650;SDS011;39552;45.776;15.892;2022-11-02T00:02:26;51.95;;;28.65;;
53650;SDS011;39552;45.776;15.892;2022-11-02T00:04:53;53.17;;;29.35;;
53650;SDS011;39552;45.776;15.892;2022-11-02T00:07:19;53.50;;;29.13;;
53650;SDS011;39552;45.776;15.892;2022-11-02T00:09:46;50.45;;;28.83;;
53650;SDS011;39552;45.776;15.892;2022-11-02T00:12:13;48.80;;;29.75;;
53650;SDS011;39552;45.776;15.892;2022-11-02T00:14:42;47.45;;;27.85;;
53650;SDS011;39552;45.776;15.892;2022-11-02T00:17:09;44.47;;;28.67;;
53650;SDS011;39552;45.776;15.892;2022-11-02T00:19:38;44.97;;;27.55;;
53650;SDS011;39552;45.776;15.892;2022-11-02T00:22:04;51.47;;;26.42;;
53650;SDS011;39552;45.776;15.892;2022-11-02T00:24:31;44.08;;;26.30;;
53650;SDS011;39552;45.776;15.892;2022-11-02T00:26:58;44.50;;;24.98;;
53650;SDS011;39552;45.776;15.892;2022-11-02T00:29:26;44.47;;;26.65;;
53650;SDS011;39552;45.776;15.892;2022-11-02T00:31:59;46.30;;;26.20;;
53650;SDS011;39552;45.776;15.892;2022-11-02T00:34:26;49.10;;;25.75;;
53650;SDS011;39552;45.776;15.892;2022-11-02T00:36:55;41.97;;;24.17;;
53650;SDS011;39552;45.776;15.892;2022-11-02T00:39:22;40.22;;;24.98;;
53650;SDS011;39552;45.776;15.892;2022-11-02T00:41:49;41.65;;;25.42;;
53650;SDS011;39552;45.776;15.892;2022-11-02T00:44:16;42.63;;;26.10;;
53650;SDS011;39552;45.776;15.892;2022-11-02T00:46:43;43.70;;;25.92;;
53650;SDS011;39552;45.776;15.892;2022-11-02T00:49:10;42.17;;;25.85;;
53650;SDS011;39552;45.776;15.892;2022-11-02T00:51:36;42.28;;;25.83;;
53650;SDS011;39552;45.776;15.892;2022-11-02T00:54:05;39.70;;;26.90;;
53650;SDS011;39552;45.776;15.892;2022-11-02T00:56:32;43.03;;;25.02;;
53650;SDS011;39552;45.776;15.892;2022-11-02T00:58:58;49.45;;;25.63;;
53650;SDS011;39552;45.776;15.892;2022-11-02T01:01:25;41.20;;;24.30;;
53650;SDS011;39552;45.776;15.892;2022-11-02T01:03:54;53.28;;;25.45;;
53650;SDS011;39552;45.776;15.892;2022-11-02T01:06:22;43.63;;;27.15;;
53650;SDS011;39552;45.776;15.892;2022-11-02T01:08:49;44.38;;;25.15;;
53650;SDS011;39552;45.776;15.892;2022-11-02T01:11:18;41.45;;;24.55;;
53650;SDS011;39552;45.776;15.892;2022-11-02T01:13:47;41.85;;;25.33;;
53650;SDS011;39552;45.776;15.892;2022-11-02T01:16:15;39.03;;;24.95;;
53650;SDS011;39552;45.776;15.892;2022-11-02T01:18:42;44.33;;;26.02;;
53650;SDS011;39552;45.776;15.892;2022-11-02T01:21:09;47.95;;;26.35;;
53650;SDS011;39552;45.776;15.892;2022-11-02T01:23:36;45.53;;;24.95;;
53650;SDS011;39552;45.776;15.892;2022-11-02T01:26:04;47.75;;;26.40;;
53650;SDS011;39552;45.776;15.892;2022-11-02T01:28:34;38.05;;;24.42;;
53650;SDS011;39552;45.776;15.892;2022-11-02T01:31:01;39.70;;;25.50;;
53650;SDS011;39552;45.776;15.892;2022-11-02T01:33:28;43.08;;;23.92;;
53650;SDS011;39552;45.776;15.892;2022-11-02T01:35:55;41.15;;;24.50;;
53650;SDS011;39552;45.776;15.892;2022-11-02T01:38:22;46.58;;;25.45;;
53650;SDS011;39552;45.776;15.892;2022-11-02T01:40:49;40.88;;;23.52;;
53650;SDS011;39552;45.776;15.892;2022-11-02T01:43:20;37.28;;;23.23;;
53650;SDS011;39552;45.776;15.892;2022-11-02T01:45:49;45.58;;;23.42;;
53650;SDS011;39552;45.776;15.892;2022-11-02T01:48:19;47.63;;;24.42;;
53650;SDS011;39552;45.776;15.892;2022-11-02T01:50:51;44.30;;;22.55;;
53650;SDS011;39552;45.776;15.892;2022-11-02T01:53:19;39.50;;;21.65;;
53650;SDS011;39552;45.776;15.892;2022-11-02T01:55:46;39.67;;;21.48;;
53650;SDS011;39552;45.776;15.892;2022-11-02T01:58:12;41.50;;;21.52;;
53650;SDS011;39552;45.776;15.892;2022-11-02T02:00:39;43.42;;;22.45;;
53650;SDS011;39552;45.776;15.892;2022-11-02T02:03:08;39.80;;;21.63;;
53650;SDS011;39552;45.776;15.892;2022-11-02T02:05:39;36.05;;;23.00;;
53650;SDS011;39552;45.776;15.892;2022-11-02T02:08:07;39.03;;;24.10;;
53650;SDS011;39552;45.776;15.892;2022-11-02T02:10:37;42.35;;;24.70;;
53650;SDS011;39552;45.776;15.892;2022-11-02T02:13:04;42.50;;;22.55;;
53650;SDS011;39552;45.776;15.892;2022-11-02T02:15:34;39.20;;;22.42;;
53650;SDS011;39552;45.776;15.892;2022-11-02T02:18:09;43.70;;;24.38;;
53650;SDS011;39552;45.776;15.892;2022-11-02T02:20:47;37.90;;;22.67;;
53650;SDS011;39552;45.776;15.892;2022-11-02T02:23:43;39.70;;;22.92;;
53650;SDS011;39552;45.776;15.892;2022-11-02T02:26:32;39.22;;;22.17;;
53650;SDS011;39552;45.776;15.892;2022-11-02T02:29:29;41.78;;;22.30;;
53650;SDS011;39552;45.776;15.892;2022-11-02T02:32:03;41.47;;;22.27;;
53650;SDS011;39552;45.776;15.892;2022-11-02T02:34:38;38.92;;;21.90;;
53650;SDS011;39552;45.776;15.892;2022-11-02T02:37:13;44.20;;;24.77;;
53650;SDS011;39552;45.776;15.892;2022-11-02T02:39:45;44.30;;;24.65;;
53650;SDS011;39552;45.776;15.892;2022-11-02T02:42:17;40.95;;;22.75;;
53650;SDS011;39552;45.776;15.892;2022-11-02T02:44:52;44.03;;;22.60;;
53650;SDS011;39552;45.776;15.892;2022-11-02T02:47:25;33.47;;;22.13;;
53650;SDS011;39552;45.776;15.892;2022-11-02T02:49:55;39.85;;;23.02;;
53650;SDS011;39552;45.776;15.892;2022-11-02T02:52:28;43.33;;;22.92;;
53650;SDS011;39552;45.776;15.892;2022-11-02T02:54:57;38.25;;;21.98;;
53650;SDS011;39552;45.776;15.892;2022-11-02T02:57:26;35.67;;;22.45;;
53650;SDS011;39552;45.776;15.892;2022-11-02T02:59:57;40.95;;;22.83;;
53650;SDS011;39552;45.776;15.892;2022-11-02T03:02:24;37.65;;;22.05;;
53650;SDS011;39552;45.776;15.892;2022-11-02T03:04:56;38.30;;;21.67;;
53650;SDS011;39552;45.776;15.892;2022-11-02T03:07:23;41.83;;;22.73;;
53650;SDS011;39552;45.776;15.892;2022-11-02T03:10:00;41.85;;;22.48;;
53650;SDS011;39552;45.776;15.892;2022-11-02T03:12:38;41.40;;;22.25;;
53650;SDS011;39552;45.776;15.892;2022-11-02T03:15:14;34.28;;;21.42;;
53650;SDS011;39552;45.776;15.892;2022-11-02T03:17:50;31.35;;;20.95;;
53650;SDS011;39552;45.776;15.892;2022-11-02T03:20:29;38.92;;;21.58;;
53650;SDS011;39552;45.776;15.892;2022-11-02T03:23:19;44.95;;;21.55;;
53650;SDS011;39552;45.776;15.892;2022-11-02T03:25:52;36.30;;;20.95;;
53650;SDS011;39552;45.776;15.892;2022-11-02T03:28:29;37.78;;;21.58;;
53650;SDS011;39552;45.776;15.892;2022-11-02T03:31:09;42.65;;;23.33;;
53650;SDS011;39552;45.776;15.892;2022-11-02T03:33:40;36.13;;;22.00;;
53650;SDS011;39552;45.776;15.892;2022-11-02T03:36:11;33.30;;;20.45;;
53650;SDS011;39552;45.776;15.892;2022-11-02T03:38:42;40.47;;;22.02;;
53650;SDS011;39552;45.776;15.892;2022-11-02T03:41:12;30.73;;;21.75;;
53650;SDS011;39552;45.776;15.892;2022-11-02T03:43:41;36.72;;;21.80;;
53650;SDS011;39552;45.776;15.892;2022-11-02T03:46:11;41.40;;;22.27;;
53650;SDS011;39552;45.776;15.892;2022-11-02T03:48:42;37.00;;;22.15;;
53650;SDS011;39552;45.776;15.892;2022-11-02T03:51:14;42.90;;;23.38;;
53650;SDS011;39552;45.776;15.892;2022-11-02T03:53:46;43.97;;;23.40;;
53650;SDS011;39552;45.776;15.892;2022-11-02T03:56:18;41.42;;;22.85;;
53650;SDS011;39552;45.776;15.892;2022-11-02T03:58:50;39.65;;;23.45;;
53650;SDS011;39552;45.776;15.892;2022-11-02T04:01:19;45.85;;;24.27;;
53650;SDS011;39552;45.776;15.892;2022-11-02T04:03:46;42.20;;;24.63;;
53650;SDS011;39552;45.776;15.892;2022-11-02T04:06:13;47.38;;;23.65;;
53650;SDS011;39552;45.776;15.892;2022-11-02T04:08:42;43.50;;;24.65;;
53650;SDS011;39552;45.776;15.892;2022-11-02T04:11:11;35.25;;;22.58;;
53650;SDS011;39552;45.776;15.892;2022-11-02T04:13:38;42.20;;;23.63;;
53650;SDS011;39552;45.776;15.892;2022-11-02T04:16:05;43.20;;;24.25;;
53650;SDS011;39552;45.776;15.892;2022-11-02T04:18:35;50.15;;;25.77;;
53650;SDS011;39552;45.776;15.892;2022-11-02T04:21:02;49.15;;;26.20;;
53650;SDS011;39552;45.776;15.892;2022-11-02T04:23:29;41.50;;;23.17;;
53650;SDS011;39552;45.776;15.892;2022-11-02T04:25:56;35.08;;;22.73;;
53650;SDS011;39552;45.776;15.892;2022-11-02T04:28:23;37.08;;;22.35;;
53650;SDS011;39552;45.776;15.892;2022-11-02T04:30:50;43.88;;;23.73;;
53650;SDS011;39552;45.776;15.892;2022-11-02T04:33:17;46.13;;;22.88;;
53650;SDS011;39552;45.776;15.892;2022-11-02T04:35:45;43.35;;;22.60;;
53650;SDS011;39552;45.776;15.892;2022-11-02T04:38:12;39.80;;;21.55;;
53650;SDS011;39552;45.776;15.892;2022-11-02T04:40:39;38.35;;;21.63;;
53650;SDS011;39552;45.776;15.892;2022-11-02T04:43:06;40.67;;;20.92;;
53650;SDS011;39552;45.776;15.892;2022-11-02T04:45:35;35.08;;;20.20;;
53650;SDS011;39552;45.776;15.892;2022-11-02T04:48:04;35.72;;;21.48;;
53650;SDS011;39552;45.776;15.892;2022-11-02T04:50:33;36.65;;;21.75;;
53650;SDS011;39552;45.776;15.892;2022-11-02T04:53:03;39.27;;;22.20;;
53650;SDS011;39552;45.776;15.892;2022-11-02T04:55:33;33.85;;;21.45;;
53650;SDS011;39552;45.776;15.892;2022-11-02T04:58:00;37.30;;;22.10;;
53650;SDS011;39552;45.776;15.892;2022-11-02T05:00:27;37.13;;;22.10;;
53650;SDS011;39552;45.776;15.892;2022-11-02T05:02:54;37.65;;;22.92;;
53650;SDS011;39552;45.776;15.892;2022-11-02T05:05:21;43.35;;;23.77;;
53650;SDS011;39552;45.776;15.892;2022-11-02T05:07:48;38.58;;;25.98;;
53650;SDS011;39552;45.776;15.892;2022-11-02T05:10:16;56.25;;;27.13;;
53650;SDS011;39552;45.776;15.892;2022-11-02T05:12:56;43.95;;;26.35;;
53650;SDS011;39552;45.776;15.892;2022-11-02T05:15:24;46.20;;;26.98;;
53650;SDS011;39552;45.776;15.892;2022-11-02T05:17:50;45.15;;;27.13;;
53650;SDS011;39552;45.776;15.892;2022-11-02T05:20:17;46.38;;;28.25;;
53650;SDS011;39552;45.776;15.892;2022-11-02T05:22:44;54.60;;;27.27;;
53650;SDS011;39552;45.776;15.892;2022-11-02T05:25:11;48.08;;;28.55;;
53650;SDS011;39552;45.776;15.892;2022-11-02T05:27:40;46.72;;;30.15;;
53650;SDS011;39552;45.776;15.892;2022-11-02T05:30:07;51.30;;;28.10;;
53650;SDS011;39552;45.776;15.892;2022-11-02T05:32:35;76.72;;;34.38;;
53650;SDS011;39552;45.776;15.892;2022-11-02T05:35:02;59.20;;;31.27;;
53650;SDS011;39552;45.776;15.892;2022-11-02T05:37:29;94.38;;;34.83;;
53650;SDS011;39552;45.776;15.892;2022-11-02T05:39:55;290.38;;;40.28;;
53650;SDS011;39552;45.776;15.892;2022-11-02T05:42:22;566.38;;;53.92;;
53650;SDS011;39552;45.776;15.892;2022-11-02T05:44:51;538.10;;;52.47;;
53650;SDS011;39552;45.776;15.892;2022-11-02T05:47:17;239.73;;;42.15;;
53650;SDS011;39552;45.776;15.892;2022-11-02T05:49:44;201.52;;;38.00;;
53650;SDS011;39552;45.776;15.892;2022-11-02T05:52:11;158.43;;;37.60;;
53650;SDS011;39552;45.776;15.892;2022-11-02T05:54:38;143.70;;;35.65;;
53650;SDS011;39552;45.776;15.892;2022-11-02T05:57:04;295.67;;;39.95;;
53650;SDS011;39552;45.776;15.892;2022-11-02T05:59:31;305.30;;;36.63;;
53650;SDS011;39552;45.776;15.892;2022-11-02T06:02:00;276.13;;;37.03;;
53650;SDS011;39552;45.776;15.892;2022-11-02T06:04:27;99.13;;;30.85;;
53650;SDS011;39552;45.776;15.892;2022-11-02T06:06:54;72.90;;;28.55;;
53650;SDS011;39552;45.776;15.892;2022-11-02T06:09:21;66.85;;;28.08;;
53650;SDS011;39552;45.776;15.892;2022-11-02T06:11:47;43.33;;;28.00;;
53650;SDS011;39552;45.776;15.892;2022-11-02T06:14:14;47.08;;;26.27;;
53650;SDS011;39552;45.776;15.892;2022-11-02T06:16:41;42.70;;;26.23;;
53650;SDS011;39552;45.776;15.892;2022-11-02T06:19:09;46.90;;;26.70;;
53650;SDS011;39552;45.776;15.892;2022-11-02T06:21:36;56.92;;;28.55;;
53650;SDS011;39552;45.776;15.892;2022-11-02T06:24:03;78.03;;;28.70;;
53650;SDS011;39552;45.776;15.892;2022-11-02T06:26:30;116.70;;;29.67;;
53650;SDS011;39552;45.776;15.892;2022-11-02T06:28:57;84.15;;;29.75;;
53650;SDS011;39552;45.776;15.892;2022-11-02T06:31:24;70.70;;;29.05;;
53650;SDS011;39552;45.776;15.892;2022-11-02T06:33:51;54.53;;;29.00;;
53650;SDS011;39552;45.776;15.892;2022-11-02T06:36:19;76.15;;;30.23;;
53650;SDS011;39552;45.776;15.892;2022-11-02T06:38:46;66.43;;;30.88;;
53650;SDS011;39552;45.776;15.892;2022-11-02T06:41:13;55.90;;;29.63;;
53650;SDS011;39552;45.776;15.892;2022-11-02T06:43:39;59.67;;;29.35;;
53650;SDS011;39552;45.776;15.892;2022-11-02T06:46:06;117.00;;;29.77;;
53650;SDS011;39552;45.776;15.892;2022-11-02T06:48:33;73.68;;;27.40;;
53650;SDS011;39552;45.776;15.892;2022-11-02T06:51:01;141.00;;;28.90;;
53650;SDS011;39552;45.776;15.892;2022-11-02T06:53:30;98.00;;;28.15;;
53650;SDS011;39552;45.776;15.892;2022-11-02T06:55:57;96.10;;;28.65;;
53650;SDS011;39552;45.776;15.892;2022-11-02T06:58:25;90.78;;;27.83;;
53650;SDS011;39552;45.776;15.892;2022-11-02T07:00:55;64.07;;;27.33;;
53650;SDS011;39552;45.776;15.892;2022-11-02T07:03:23;47.13;;;27.63;;
53650;SDS011;39552;45.776;15.892;2022-11-02T07:05:50;59.65;;;28.50;;
53650;SDS011;39552;45.776;15.892;2022-11-02T07:08:17;38.88;;;25.42;;
53650;SDS011;39552;45.776;15.892;2022-11-02T07:10:46;50.58;;;26.30;;
53650;SDS011;39552;45.776;15.892;2022-11-02T07:13:15;46.80;;;25.57;;
53650;SDS011;39552;45.776;15.892;2022-11-02T07:15:42;55.60;;;26.80;;
53650;SDS011;39552;45.776;15.892;2022-11-02T07:18:09;59.40;;;26.77;;
53650;SDS011;39552;45.776;15.892;2022-11-02T07:20:36;40.05;;;28.08;;
53650;SDS011;39552;45.776;15.892;2022-11-02T07:24:15;40.03;;;25.90;;
53650;SDS011;39552;45.776;15.892;2022-11-02T07:26:19;39.35;;;26.50;;
53650;SDS011;39552;45.776;15.892;2022-11-02T07:28:45;45.40;;;26.48;;
53650;SDS011;39552;45.776;15.892;2022-11-02T07:31:13;43.50;;;26.60;;
53650;SDS011;39552;45.776;15.892;2022-11-02T07:33:39;41.78;;;25.77;;
53650;SDS011;39552;45.776;15.892;2022-11-02T07:36:06;37.60;;;24.73;;
53650;SDS011;39552;45.776;15.892;2022-11-02T07:38:33;40.42;;;25.42;;
53650;SDS011;39552;45.776;15.892;2022-11-02T07:41:01;35.50;;;24.70;;
53650;SDS011;39552;45.776;15.892;2022-11-02T07:43:30;36.22;;;24.85;;
53650;SDS011;39552;45.776;15.892;2022-11-02T07:45:57;36.97;;;25.45;;
53650;SDS011;39552;45.776;15.892;2022-11-02T07:48:24;43.95;;;27.50;;
53650;SDS011;39552;45.776;15.892;2022-11-02T07:50:51;49.42;;;29.73;;
53650;SDS011;39552;45.776;15.892;2022-11-02T07:53:18;56.97;;;32.20;;
53650;SDS011;39552;45.776;15.892;2022-11-02T07:55:45;44.42;;;30.13;;
53650;SDS011;39552;45.776;15.892;2022-11-02T07:58:13;47.17;;;30.58;;
53650;SDS011;39552;45.776;15.892;2022-11-02T08:00:42;55.08;;;31.60;;
53650;SDS011;39552;45.776;15.892;2022-11-02T08:03:10;58.13;;;32.97;;
53650;SDS011;39552;45.776;15.892;2022-11-02T08:05:38;56.40;;;32.60;;
53650;SDS011;39552;45.776;15.892;2022-11-02T08:10:36;46.97;;;30.55;;
53650;SDS011;39552;45.776;15.892;2022-11-02T08:13:06;53.13;;;31.77;;
53650;SDS011;39552;45.776;15.892;2022-11-02T08:15:35;49.80;;;30.90;;
53650;SDS011;39552;45.776;15.892;2022-11-02T08:18:04;49.38;;;32.60;;
53650;SDS011;39552;45.776;15.892;2022-11-02T08:20:33;50.55;;;32.40;;
53650;SDS011;39552;45.776;15.892;2022-11-02T08:23:01;52.17;;;33.08;;
53650;SDS011;39552;45.776;15.892;2022-11-02T08:25:28;50.58;;;31.55;;
53650;SDS011;39552;45.776;15.892;2022-11-02T08:27:55;60.53;;;32.55;;
53650;SDS011;39552;45.776;15.892;2022-11-02T08:30:23;44.20;;;32.38;;
53650;SDS011;39552;45.776;15.892;2022-11-02T08:32:50;49.35;;;33.40;;
53650;SDS011;39552;45.776;15.892;2022-11-02T08:35:23;51.80;;;31.40;;
53650;SDS011;39552;45.776;15.892;2022-11-02T08:37:55;51.45;;;31.52;;
53650;SDS011;39552;45.776;15.892;2022-11-02T08:40:26;49.58;;;31.23;;
53650;SDS011;39552;45.776;15.892;2022-11-02T08:42:56;48.35;;;30.40;;
53650;SDS011;39552;45.776;15.892;2022-11-02T08:45:31;47.17;;;32.47;;
53650;SDS011;39552;45.776;15.892;2022-11-02T08:51:00;51.17;;;32.85;;
53650;SDS011;39552;45.776;15.892;2022-11-02T08:53:27;53.15;;;32.90;;
53650;SDS011;39552;45.776;15.892;2022-11-02T08:55:55;58.95;;;33.63;;
53650;SDS011;39552;45.776;15.892;2022-11-02T08:58:22;60.05;;;34.78;;
53650;SDS011;39552;45.776;15.892;2022-11-02T09:00:52;60.15;;;34.85;;
53650;SDS011;39552;45.776;15.892;2022-11-02T09:03:19;64.05;;;35.38;;
53650;SDS011;39552;45.776;15.892;2022-11-02T09:05:55;55.92;;;33.67;;
53650;SDS011;39552;45.776;15.892;2022-11-02T09:08:25;57.35;;;32.83;;
53650;SDS011;39552;45.776;15.892;2022-11-02T09:10:52;53.08;;;31.77;;
53650;SDS011;39552;45.776;15.892;2022-11-02T09:13:22;51.78;;;31.70;;
53650;SDS011;39552;45.776;15.892;2022-11-02T09:15:53;58.10;;;34.17;;
53650;SDS011;39552;45.776;15.892;2022-11-02T09:21:15;55.38;;;30.40;;
53650;SDS011;39552;45.776;15.892;2022-11-02T09:23:43;55.95;;;31.15;;
53650;SDS011;39552;45.776;15.892;2022-11-02T09:26:11;49.20;;;30.00;;
53650;SDS011;39552;45.776;15.892;2022-11-02T09:28:49;50.47;;;31.10;;
53650;SDS011;39552;45.776;15.892;2022-11-02T09:31:16;46.25;;;29.30;;
53650;SDS011;39552;45.776;15.892;2022-11-02T09:33:43;49.60;;;29.25;;
53650;SDS011;39552;45.776;15.892;2022-11-02T09:36:10;43.70;;;27.27;;
53650;SDS011;39552;45.776;15.892;2022-11-02T09:38:40;47.58;;;28.33;;
53650;SDS011;39552;45.776;15.892;2022-11-02T09:41:10;52.10;;;28.63;;
53650;SDS011;39552;45.776;15.892;2022-11-02T09:43:42;46.08;;;26.85;;
53650;SDS011;39552;45.776;15.892;2022-11-02T09:46:16;40.47;;;26.63;;
53650;SDS011;39552;45.776;15.892;2022-11-02T09:48:47;46.78;;;26.02;;
53650;SDS011;39552;45.776;15.892;2022-11-02T09:51:24;37.10;;;24.50;;
53650;SDS011;39552;45.776;15.892;2022-11-02T09:53:58;37.72;;;23.38;;
53650;SDS011;39552;45.776;15.892;2022-11-02T09:56:45;37.55;;;24.00;;
53650;SDS011;39552;45.776;15.892;2022-11-02T10:04:42;30.77;;;19.50;;
53650;SDS011;39552;45.776;15.892;2022-11-02T10:10:32;30.05;;;14.68;;
53650;SDS011;39552;45.776;15.892;2022-11-02T10:19:26;30.13;;;16.25;;
53650;SDS011;39552;45.776;15.892;2022-11-02T10:21:58;27.50;;;15.95;;
53650;SDS011;39552;45.776;15.892;2022-11-02T10:24:29;22.73;;;16.80;;
53650;SDS011;39552;45.776;15.892;2022-11-02T10:27:03;30.52;;;17.52;;
53650;SDS011;39552;45.776;15.892;2022-11-02T10:32:13;35.78;;;18.08;;
53650;SDS011;39552;45.776;15.892;2022-11-02T10:34:46;32.28;;;17.88;;
53650;SDS011;39552;45.776;15.892;2022-11-02T10:37:37;25.67;;;17.80;;
53650;SDS011;39552;45.776;15.892;2022-11-02T10:40:20;31.40;;;18.73;;
53650;SDS011;39552;45.776;15.892;2022-11-02T10:43:09;33.30;;;18.65;;
53650;SDS011;39552;45.776;15.892;2022-11-02T10:45:48;26.20;;;18.02;;
53650;SDS011;39552;45.776;15.892;2022-11-02T10:48:31;30.73;;;17.67;;
53650;SDS011;39552;45.776;15.892;2022-11-02T10:51:08;29.08;;;17.15;;
53650;SDS011;39552;45.776;15.892;2022-11-02T10:56:28;26.95;;;16.98;;
53650;SDS011;39552;45.776;15.892;2022-11-02T10:59:01;27.90;;;17.23;;
53650;SDS011;39552;45.776;15.892;2022-11-02T11:01:35;29.13;;;17.92;;
53650;SDS011;39552;45.776;15.892;2022-11-02T11:04:18;22.08;;;16.40;;
53650;SDS011;39552;45.776;15.892;2022-11-02T11:06:49;25.33;;;16.35;;
53650;SDS011;39552;45.776;15.892;2022-11-02T11:09:21;24.10;;;16.13;;
53650;SDS011;39552;45.776;15.892;2022-11-02T11:11:53;26.40;;;15.98;;
53650;SDS011;39552;45.776;15.892;2022-11-02T11:14:22;33.08;;;17.85;;
53650;SDS011;39552;45.776;15.892;2022-11-02T11:17:13;27.77;;;15.75;;
53650;SDS011;39552;45.776;15.892;2022-11-02T11:20:03;24.13;;;13.43;;
53650;SDS011;39552;45.776;15.892;2022-11-02T11:22:35;21.45;;;13.30;;
53650;SDS011;39552;45.776;15.892;2022-11-02T11:25:17;16.88;;;11.52;;
53650;SDS011;39552;45.776;15.892;2022-11-02T11:27:53;24.17;;;10.55;;
53650;SDS011;39552;45.776;15.892;2022-11-02T11:30:22;20.70;;;10.88;;
53650;SDS011;39552;45.776;15.892;2022-11-02T11:33:13;15.82;;;11.68;;
53650;SDS011;39552;45.776;15.892;2022-11-02T11:35:46;23.60;;;11.52;;
53650;SDS011;39552;45.776;15.892;2022-11-02T11:38:17;26.27;;;11.48;;
53650;SDS011;39552;45.776;15.892;2022-11-02T11:43:20;17.15;;;11.60;;
53650;SDS011;39552;45.776;15.892;2022-11-02T11:45:54;19.55;;;12.55;;
53650;SDS011;39552;45.776;15.892;2022-11-02T11:48:32;26.48;;;12.60;;
53650;SDS011;39552;45.776;15.892;2022-11-02T11:51:05;21.52;;;12.95;;
53650;SDS011;39552;45.776;15.892;2022-11-02T11:54:08;19.55;;;11.85;;
53650;SDS011;39552;45.776;15.892;2022-11-02T12:00:22;21.92;;;12.15;;
53650;SDS011;39552;45.776;15.892;2022-11-02T12:03:00;15.75;;;10.82;;
53650;SDS011;39552;45.776;15.892;2022-11-02T12:08:12;14.65;;;9.57;;
53650;SDS011;39552;45.776;15.892;2022-11-02T12:10:53;20.95;;;11.63;;
53650;SDS011;39552;45.776;15.892;2022-11-02T12:13:38;17.35;;;10.40;;
53650;SDS011;39552;45.776;15.892;2022-11-02T12:16:23;20.05;;;10.32;;
53650;SDS011;39552;45.776;15.892;2022-11-02T12:19:06;25.30;;;10.93;;
53650;SDS011;39552;45.776;15.892;2022-11-02T12:21:44;18.75;;;10.38;;
53650;SDS011;39552;45.776;15.892;2022-11-02T12:27:36;17.20;;;8.88;;
53650;SDS011;39552;45.776;15.892;2022-11-02T12:30:12;23.48;;;10.32;;
53650;SDS011;39552;45.776;15.892;2022-11-02T12:32:51;15.52;;;9.13;;
53650;SDS011;39552;45.776;15.892;2022-11-02T12:35:49;10.50;;;8.05;;
53650;SDS011;39552;45.776;15.892;2022-11-02T12:38:44;13.70;;;8.25;;
53650;SDS011;39552;45.776;15.892;2022-11-02T12:44:33;19.75;;;7.85;;
53650;SDS011;39552;45.776;15.892;2022-11-02T12:47:09;12.13;;;7.82;;
53650;SDS011;39552;45.776;15.892;2022-11-02T12:49:47;18.92;;;8.50;;
53650;SDS011;39552;45.776;15.892;2022-11-02T12:52:25;16.42;;;7.80;;
53650;SDS011;39552;45.776;15.892;2022-11-02T12:55:03;12.48;;;7.47;;
53650;SDS011;39552;45.776;15.892;2022-11-02T12:57:41;17.45;;;7.80;;
53650;SDS011;39552;45.776;15.892;2022-11-02T13:00:16;14.63;;;7.50;;
53650;SDS011;39552;45.776;15.892;2022-11-02T13:02:48;16.00;;;7.57;;
53650;SDS011;39552;45.776;15.892;2022-11-02T13:05:22;13.60;;;7.70;;
53650;SDS011;39552;45.776;15.892;2022-11-02T13:07:55;16.17;;;8.57;;
53650;SDS011;39552;45.776;15.892;2022-11-02T13:10:29;13.52;;;7.40;;
53650;SDS011;39552;45.776;15.892;2022-11-02T13:13:00;10.80;;;7.38;;
53650;SDS011;39552;45.776;15.892;2022-11-02T13:15:32;14.32;;;7.97;;
53650;SDS011;39552;45.776;15.892;2022-11-02T13:18:04;12.15;;;7.18;;
53650;SDS011;39552;45.776;15.892;2022-11-02T13:20:38;14.73;;;8.05;;
53650;SDS011;39552;45.776;15.892;2022-11-02T13:23:14;11.60;;;8.18;;
53650;SDS011;39552;45.776;15.892;2022-11-02T13:25:47;19.50;;;9.15;;
53650;SDS011;39552;45.776;15.892;2022-11-02T13:28:18;13.32;;;8.05;;
53650;SDS011;39552;45.776;15.892;2022-11-02T13:30:59;13.73;;;7.95;;
53650;SDS011;39552;45.776;15.892;2022-11-02T13:33:29;17.65;;;8.40;;
53650;SDS011;39552;45.776;15.892;2022-11-02T13:36:05;10.82;;;7.40;;
53650;SDS011;39552;45.776;15.892;2022-11-02T13:38:33;16.58;;;7.45;;
53650;SDS011;39552;45.776;15.892;2022-11-02T13:43:51;17.90;;;8.63;;
53650;SDS011;39552;45.776;15.892;2022-11-02T13:46:37;13.80;;;7.97;;
53650;SDS011;39552;45.776;15.892;2022-11-02T13:49:23;17.63;;;7.72;;
53650;SDS011;39552;45.776;15.892;2022-11-02T13:51:55;17.65;;;7.40;;
53650;SDS011;39552;45.776;15.892;2022-11-02T13:54:28;18.48;;;8.15;;
53650;SDS011;39552;45.776;15.892;2022-11-02T13:56:59;17.52;;;8.45;;
53650;SDS011;39552;45.776;15.892;2022-11-02T13:59:28;18.17;;;7.30;;
53650;SDS011;39552;45.776;15.892;2022-11-02T14:02:00;10.70;;;6.70;;
53650;SDS011;39552;45.776;15.892;2022-11-02T14:04:35;18.67;;;6.43;;
53650;SDS011;39552;45.776;15.892;2022-11-02T14:07:04;13.73;;;5.65;;
53650;SDS011;39552;45.776;15.892;2022-11-02T14:09:34;10.05;;;5.13;;
53650;SDS011;39552;45.776;15.892;2022-11-02T14:12:10;10.32;;;5.20;;
53650;SDS011;39552;45.776;15.892;2022-11-02T14:18:01;14.55;;;5.07;;
53650;SDS011;39552;45.776;15.892;2022-11-02T14:20:37;10.85;;;5.22;;
53650;SDS011;39552;45.776;15.892;2022-11-02T14:26:07;12.23;;;4.80;;
53650;SDS011;39552;45.776;15.892;2022-11-02T14:28:56;12.13;;;5.28;;
53650;SDS011;39552;45.776;15.892;2022-11-02T14:31:38;13.73;;;5.65;;
53650;SDS011;39552;45.776;15.892;2022-11-02T14:34:22;16.15;;;5.63;;
53650;SDS011;39552;45.776;15.892;2022-11-02T14:37:04;13.70;;;5.88;;
53650;SDS011;39552;45.776;15.892;2022-11-02T14:39:47;9.50;;;5.22;;
53650;SDS011;39552;45.776;15.892;2022-11-02T14:42:20;10.00;;;5.22;;
53650;SDS011;39552;45.776;15.892;2022-11-02T14:45:23;10.98;;;5.57;;
53650;SDS011;39552;45.776;15.892;2022-11-02T14:47:57;15.00;;;5.13;;
53650;SDS011;39552;45.776;15.892;2022-11-02T14:50:27;10.40;;;5.47;;
53650;SDS011;39552;45.776;15.892;2022-11-02T14:52:56;16.30;;;5.70;;
53650;SDS011;39552;45.776;15.892;2022-11-02T14:55:28;12.88;;;4.90;;
53650;SDS011;39552;45.776;15.892;2022-11-02T14:57:57;18.27;;;5.75;;
53650;SDS011;39552;45.776;15.892;2022-11-02T15:00:36;11.70;;;5.30;;
53650;SDS011;39552;45.776;15.892;2022-11-02T15:03:25;15.80;;;6.55;;
53650;SDS011;39552;45.776;15.892;2022-11-02T15:06:00;9.63;;;5.43;;
53650;SDS011;39552;45.776;15.892;2022-11-02T15:08:30;14.80;;;5.90;;
53650;SDS011;39552;45.776;15.892;2022-11-02T15:10:59;11.75;;;5.95;;
53650;SDS011;39552;45.776;15.892;2022-11-02T15:16:57;15.43;;;6.43;;
53650;SDS011;39552;45.776;15.892;2022-11-02T15:19:37;15.07;;;6.00;;
53650;SDS011;39552;45.776;15.892;2022-11-02T15:25:02;9.02;;;5.45;;
53650;SDS011;39552;45.776;15.892;2022-11-02T15:27:36;12.15;;;6.25;;
53650;SDS011;39552;45.776;15.892;2022-11-02T15:30:05;11.63;;;6.15;;
53650;SDS011;39552;45.776;15.892;2022-11-02T15:32:37;16.77;;;5.93;;
53650;SDS011;39552;45.776;15.892;2022-11-02T15:35:12;16.40;;;6.30;;
53650;SDS011;39552;45.776;15.892;2022-11-02T15:37:44;18.00;;;6.78;;